createdAt,value
2017-11-13T00:00:39.083Z,0.1
2017-11-13T00:01:39.132Z,0.1
2017-11-13T00:02:39.085Z,0.1
2017-11-13T00:03:39.084Z,0.1
2017-11-13T00:04:39.079Z,0.1
2017-11-13T00:05:39.056Z,0.1
2017-11-13T00:06:39.120Z,0
2017-11-13T00:07:39.064Z,0
2017-11-13T00:08:39.053Z,0
2017-11-13T00:09:39.053Z,0
2017-11-13T00:10:39.118Z,0
2017-11-13T00:11:39.111Z,0
2017-11-13T00:12:39.056Z,0
2017-11-13T00:13:39.073Z,0
2017-11-13T00:14:39.066Z,0
2017-11-13T00:15:39.075Z,0
2017-11-13T00:16:39.154Z,0
2017-11-13T00:17:39.075Z,0
2017-11-13T00:18:39.141Z,0
2017-11-13T00:19:39.071Z,0
2017-11-13T00:20:39.058Z,0
2017-11-13T00:21:39.368Z,0
2017-11-13T00:22:39.080Z,0
2017-11-13T00:23:39.064Z,0
2017-11-13T00:24:39.056Z,0
2017-11-13T00:25:39.053Z,0
2017-11-13T00:26:39.106Z,0
2017-11-13T00:27:39.062Z,0
2017-11-13T00:28:39.052Z,0
2017-11-13T00:29:39.061Z,0
2017-11-13T00:30:39.072Z,0
2017-11-13T00:31:39.060Z,0
2017-11-13T00:32:39.067Z,0
2017-11-13T00:33:39.057Z,0
2017-11-13T00:34:39.047Z,0
2017-11-13T00:35:39.062Z,0
2017-11-13T00:36:39.061Z,0
2017-11-13T00:37:39.047Z,0
2017-11-13T00:38:39.046Z,0
2017-11-13T00:39:39.041Z,0
2017-11-13T00:40:39.075Z,0
2017-11-13T00:41:39.061Z,0
2017-11-13T00:42:39.049Z,0
2017-11-13T00:43:39.040Z,0
2017-11-13T00:44:39.063Z,0
2017-11-13T00:45:39.056Z,0
2017-11-13T00:46:39.057Z,0
2017-11-13T00:47:39.049Z,0
2017-11-13T00:48:39.048Z,0
2017-11-13T00:49:39.058Z,0
2017-11-13T00:50:39.067Z,0
2017-11-13T00:51:39.039Z,0
2017-11-13T00:52:39.053Z,0
2017-11-13T00:53:39.038Z,0
2017-11-13T00:54:39.037Z,0
2017-11-13T00:55:39.036Z,0
2017-11-13T00:56:39.052Z,0
2017-11-13T00:57:39.039Z,0
2017-11-13T00:58:39.034Z,0
2017-11-13T00:59:39.045Z,0
2017-11-13T01:00:39.038Z,0
2017-11-13T01:01:39.036Z,0
2017-11-13T01:02:39.080Z,0
2017-11-13T01:03:39.031Z,0
2017-11-13T01:04:39.040Z,0
2017-11-13T01:05:39.033Z,0
2017-11-13T01:06:39.031Z,0
2017-11-13T01:07:39.078Z,0
2017-11-13T01:08:39.032Z,0
2017-11-13T01:09:39.040Z,0
2017-11-13T01:10:39.055Z,0
2017-11-13T01:11:39.049Z,0
2017-11-13T01:12:40.100Z,0
2017-11-13T01:13:39.092Z,0
2017-11-13T01:14:39.042Z,0
2017-11-13T01:15:39.453Z,0
2017-11-13T01:16:39.031Z,0
2017-11-13T01:17:39.099Z,0
2017-11-13T01:18:39.030Z,0
2017-11-13T01:19:39.027Z,0
2017-11-13T01:20:39.039Z,0
2017-11-13T01:21:39.018Z,0
2017-11-13T01:22:39.076Z,0
2017-11-13T01:23:39.036Z,0
2017-11-13T01:24:39.019Z,0
2017-11-13T01:25:39.022Z,0
2017-11-13T01:26:39.013Z,0
2017-11-13T01:27:39.026Z,0
2017-11-13T01:28:39.013Z,0
2017-11-13T01:29:39.025Z,0
2017-11-13T01:30:39.029Z,0
2017-11-13T01:31:39.019Z,0
2017-11-13T01:32:39.011Z,0
2017-11-13T01:33:39.018Z,0
2017-11-13T01:34:39.035Z,0
2017-11-13T01:35:39.020Z,0
2017-11-13T01:36:39.029Z,0
2017-11-13T01:37:39.009Z,0
2017-11-13T01:38:39.065Z,0
2017-11-13T01:39:39.029Z,0
2017-11-13T01:40:39.038Z,0
2017-11-13T01:41:39.025Z,0
2017-11-13T01:42:39.009Z,0
2017-11-13T01:43:39.025Z,0
2017-11-13T01:44:39.017Z,0
2017-11-13T01:45:38.995Z,0
2017-11-13T01:46:39.011Z,0
2017-11-13T01:47:39.036Z,0
2017-11-13T01:48:39.013Z,0
2017-11-13T01:49:39.013Z,0
2017-11-13T01:50:39.026Z,0
2017-11-13T01:51:39.010Z,0
2017-11-13T01:52:39.019Z,0
2017-11-13T01:53:39.014Z,0
2017-11-13T01:54:39.018Z,0
2017-11-13T01:55:39.027Z,0
2017-11-13T01:56:39.002Z,0
2017-11-13T01:57:39.006Z,0
2017-11-13T01:58:39.000Z,0
2017-11-13T01:59:39.001Z,0
2017-11-13T02:00:39.010Z,0
2017-11-13T02:01:39.017Z,0
2017-11-13T02:02:39.010Z,0
2017-11-13T02:03:39.048Z,0
2017-11-13T02:04:38.997Z,0
2017-11-13T02:05:39.004Z,0
2017-11-13T02:06:38.998Z,0
2017-11-13T02:07:39.009Z,0
2017-11-13T02:08:39.041Z,0
2017-11-13T02:09:38.999Z,0
2017-11-13T02:10:39.002Z,0
2017-11-13T02:11:38.996Z,0
2017-11-13T02:12:38.992Z,0
2017-11-13T02:13:39.042Z,0
2017-11-13T02:14:39.006Z,0
2017-11-13T02:15:38.986Z,0
2017-11-13T02:16:38.998Z,0
2017-11-13T02:17:38.998Z,0
2017-11-13T02:18:39.059Z,0
2017-11-13T02:19:39.007Z,0
2017-11-13T02:20:38.996Z,0
2017-11-13T02:21:39.006Z,0
2017-11-13T02:22:38.983Z,0
2017-11-13T02:23:39.046Z,0
2017-11-13T02:24:39.001Z,0
2017-11-13T02:25:38.995Z,0
2017-11-13T02:26:39.004Z,0
2017-11-13T02:27:38.987Z,0
2017-11-13T02:28:38.993Z,0
2017-11-13T02:29:38.979Z,0
2017-11-13T02:30:38.982Z,0
2017-11-13T02:31:39.000Z,0
2017-11-13T02:32:38.989Z,0
2017-11-13T02:33:38.981Z,0
2017-11-13T02:34:38.984Z,0
2017-11-13T02:35:38.979Z,0
2017-11-13T02:36:39.031Z,0
2017-11-13T02:37:38.986Z,0
2017-11-13T02:38:38.981Z,0
2017-11-13T02:39:38.991Z,0
2017-11-13T02:40:38.974Z,0
2017-11-13T02:41:38.992Z,0
2017-11-13T02:42:38.980Z,0
2017-11-13T02:43:38.993Z,0
2017-11-13T02:44:38.995Z,0
2017-11-13T02:45:38.981Z,0
2017-11-13T02:46:38.982Z,0
2017-11-13T02:47:38.976Z,0
2017-11-13T02:48:38.982Z,0
2017-11-13T02:49:38.984Z,0
2017-11-13T02:50:38.990Z,0
2017-11-13T02:51:38.968Z,0
2017-11-13T02:52:38.968Z,0
2017-11-13T02:53:38.978Z,0
2017-11-13T02:54:38.969Z,0
2017-11-13T02:55:38.974Z,0
2017-11-13T02:56:38.977Z,0
2017-11-13T02:57:39.020Z,0
2017-11-13T02:58:38.986Z,0
2017-11-13T02:59:39.019Z,0
2017-11-13T03:00:38.967Z,0
2017-11-13T03:01:38.981Z,0
2017-11-13T03:02:38.983Z,0
2017-11-13T03:03:38.998Z,0
2017-11-13T03:04:39.019Z,0
2017-11-13T03:05:38.964Z,0
2017-11-13T03:06:38.969Z,0
2017-11-13T03:07:38.967Z,0
2017-11-13T03:08:38.973Z,0
2017-11-13T03:09:39.011Z,0
2017-11-13T03:10:38.970Z,0
2017-11-13T03:11:38.951Z,0
2017-11-13T03:12:39.020Z,0
2017-11-13T03:13:38.976Z,0
2017-11-13T03:14:39.002Z,0
2017-11-13T03:15:38.964Z,0
2017-11-13T03:16:38.953Z,0
2017-11-13T03:17:38.959Z,0
2017-11-13T03:18:38.968Z,0
2017-11-13T03:19:39.024Z,0
2017-11-13T03:20:38.959Z,0
2017-11-13T03:21:38.963Z,0
2017-11-13T03:22:38.972Z,0
2017-11-13T03:23:38.959Z,0
2017-11-13T03:24:39.025Z,0
2017-11-13T03:25:38.971Z,0
2017-11-13T03:26:38.946Z,0
2017-11-13T03:27:38.958Z,0
2017-11-13T03:28:38.954Z,0
2017-11-13T03:29:39.047Z,0
2017-11-13T03:30:38.967Z,0
2017-11-13T03:31:38.967Z,0
2017-11-13T03:32:38.959Z,0
2017-11-13T03:33:38.969Z,0
2017-11-13T03:34:38.990Z,0
2017-11-13T03:35:38.970Z,0
2017-11-13T03:36:38.948Z,0
2017-11-13T03:37:38.962Z,0
2017-11-13T03:38:38.955Z,0
2017-11-13T03:39:38.961Z,0
2017-11-13T03:40:38.953Z,0
2017-11-13T03:41:38.950Z,0
2017-11-13T03:42:38.954Z,0
2017-11-13T03:43:38.962Z,0
2017-11-13T03:44:38.953Z,0
2017-11-13T03:45:38.960Z,0
2017-11-13T03:46:38.940Z,0
2017-11-13T03:47:38.933Z,0
2017-11-13T03:48:38.947Z,0
2017-11-13T03:49:38.966Z,0
2017-11-13T03:50:38.948Z,0
2017-11-13T03:51:38.935Z,0
2017-11-13T03:52:38.931Z,0
2017-11-13T03:53:38.945Z,0
2017-11-13T03:54:38.955Z,0
2017-11-13T03:55:38.951Z,0
2017-11-13T03:56:38.969Z,0
2017-11-13T03:57:38.958Z,0
2017-11-13T03:58:38.945Z,0
2017-11-13T03:59:38.932Z,0
2017-11-13T04:00:38.946Z,0
2017-11-13T04:01:38.946Z,0
2017-11-13T04:02:38.942Z,0
2017-11-13T04:03:38.933Z,0
2017-11-13T04:04:38.936Z,0
2017-11-13T04:05:38.949Z,0
2017-11-13T04:06:38.928Z,0
2017-11-13T04:07:38.935Z,0.2
2017-11-13T04:08:38.941Z,0.3
2017-11-13T04:09:38.940Z,0.3
2017-11-13T04:10:38.950Z,0.3
2017-11-13T04:11:38.975Z,0.2
2017-11-13T04:12:38.932Z,0.2
2017-11-13T04:13:38.948Z,0.2
2017-11-13T04:14:38.933Z,0.2
2017-11-13T04:15:38.928Z,0.2
2017-11-13T04:16:38.919Z,0.1
2017-11-13T04:17:38.918Z,0.1
2017-11-13T04:18:38.949Z,0.1
2017-11-13T04:19:38.931Z,0.1
2017-11-13T04:20:38.929Z,0.1
2017-11-13T04:21:38.942Z,0.1
2017-11-13T04:22:38.928Z,0.1
2017-11-13T04:23:38.953Z,0.1
2017-11-13T04:24:38.932Z,0.1
2017-11-13T04:25:38.967Z,0.1
2017-11-13T04:26:38.934Z,0.1
2017-11-13T04:27:38.934Z,0.1
2017-11-13T04:28:38.921Z,0.1
2017-11-13T04:29:38.924Z,0.1
2017-11-13T04:30:38.988Z,0.1
2017-11-13T04:31:38.908Z,0.1
2017-11-13T04:32:38.922Z,0
2017-11-13T04:33:38.956Z,0
2017-11-13T04:34:38.914Z,0
2017-11-13T04:35:38.983Z,0
2017-11-13T04:36:38.920Z,0
2017-11-13T04:37:38.908Z,0
2017-11-13T04:38:38.925Z,0
2017-11-13T04:39:38.910Z,0
2017-11-13T04:40:38.913Z,0
2017-11-13T04:41:38.926Z,0
2017-11-13T04:42:38.917Z,0
2017-11-13T04:43:38.900Z,0
2017-11-13T04:44:38.916Z,0
2017-11-13T04:45:38.914Z,0
2017-11-13T04:46:38.917Z,0
2017-11-13T04:47:38.907Z,0
2017-11-13T04:48:38.908Z,0
2017-11-13T04:49:38.894Z,0
2017-11-13T04:50:38.920Z,0
2017-11-13T04:51:38.920Z,0
2017-11-13T04:52:38.918Z,0
2017-11-13T04:53:38.906Z,0
2017-11-13T04:54:38.910Z,0
2017-11-13T04:55:38.906Z,0
2017-11-13T04:56:38.905Z,0
2017-11-13T04:57:38.899Z,0
2017-11-13T04:58:38.927Z,0
2017-11-13T04:59:38.905Z,0
2017-11-13T05:00:38.894Z,0
2017-11-13T05:01:38.893Z,0
2017-11-13T05:02:38.898Z,0
2017-11-13T05:03:38.888Z,0
2017-11-13T05:04:38.910Z,0
2017-11-13T05:05:38.893Z,0
2017-11-13T05:06:38.891Z,0
2017-11-13T05:07:38.907Z,0
2017-11-13T05:08:38.917Z,0
2017-11-13T05:09:38.899Z,0.1
2017-11-13T05:10:38.898Z,0.1
2017-11-13T05:11:38.915Z,0.1
2017-11-13T05:12:38.888Z,0.1
2017-11-13T05:13:38.904Z,0.1
2017-11-13T05:14:38.893Z,0.1
2017-11-13T05:15:38.908Z,0
2017-11-13T05:16:38.903Z,0
2017-11-13T05:17:38.887Z,0
2017-11-13T05:18:38.903Z,0
2017-11-13T05:19:38.900Z,0
2017-11-13T05:20:38.902Z,0
2017-11-13T05:21:38.899Z,0
2017-11-13T05:26:38.891Z,0.1
2017-11-13T05:27:38.891Z,0.1
2017-11-13T05:28:38.889Z,0.4
2017-11-13T05:29:38.928Z,0.4
2017-11-13T05:30:38.876Z,0.4
2017-11-13T05:31:38.931Z,0.4
2017-11-13T05:32:38.903Z,0.3
2017-11-13T05:33:38.885Z,0.3
2017-11-13T05:34:38.885Z,0.3
2017-11-13T05:35:38.885Z,0.2
2017-11-13T05:36:38.923Z,0.2
2017-11-13T05:37:38.885Z,0.2
2017-11-13T05:38:38.896Z,0.2
2017-11-13T05:39:38.891Z,0.2
2017-11-13T05:40:38.870Z,0.1
2017-11-13T05:41:38.950Z,0.1
2017-11-13T05:42:38.885Z,0.1
2017-11-13T05:43:38.883Z,0.1
2017-11-13T05:44:38.888Z,0.1
2017-11-13T05:45:38.873Z,0.1
2017-11-13T05:46:38.931Z,0.1
2017-11-13T05:47:38.884Z,0.1
2017-11-13T05:48:38.870Z,0.1
2017-11-13T05:49:38.885Z,0.1
2017-11-13T05:50:38.879Z,0.1
2017-11-13T05:51:38.922Z,0.1
2017-11-13T05:52:38.898Z,0.1
2017-11-13T05:53:38.866Z,0.1
2017-11-13T05:54:38.885Z,0.2
2017-11-13T05:55:38.881Z,0.2
2017-11-13T05:56:38.891Z,0.2
2017-11-13T05:57:38.888Z,0.2
2017-11-13T05:58:38.889Z,0.1
2017-11-13T05:59:38.885Z,0.1
2017-11-13T06:00:38.867Z,0.2
2017-11-13T06:01:38.865Z,0.1
2017-11-13T06:02:38.881Z,0.1
2017-11-13T06:03:38.873Z,0.1
2017-11-13T06:04:38.872Z,0.1
2017-11-13T06:05:38.874Z,0.1
2017-11-13T06:06:38.873Z,0.1
2017-11-13T06:07:38.978Z,0.1
2017-11-13T06:08:38.875Z,0.1
2017-11-13T06:09:39.025Z,0.1
2017-11-13T06:10:41.108Z,0.1
2017-11-13T06:11:38.868Z,0.1
2017-11-13T06:12:38.894Z,0.1
2017-11-13T06:13:38.879Z,0.1
2017-11-13T06:14:38.875Z,0.1
2017-11-13T06:15:38.874Z,0
2017-11-13T06:16:38.860Z,0
2017-11-13T06:17:38.871Z,0
2017-11-13T06:18:38.873Z,0
2017-11-13T06:19:38.883Z,0
2017-11-13T06:20:38.876Z,0
2017-11-13T06:21:38.854Z,0
2017-11-13T06:22:39.002Z,0
2017-11-13T06:23:38.862Z,0
2017-11-13T06:24:38.852Z,0
2017-11-13T06:25:38.868Z,0
2017-11-13T06:26:38.865Z,0
2017-11-13T06:27:38.878Z,0
2017-11-13T06:28:38.879Z,0
2017-11-13T06:29:38.867Z,0
2017-11-13T06:30:38.843Z,0
2017-11-13T06:31:38.855Z,0
2017-11-13T06:32:38.849Z,0
2017-11-13T06:33:38.848Z,0
2017-11-13T06:34:38.859Z,0
2017-11-13T06:35:38.844Z,0
2017-11-13T06:36:38.858Z,0
2017-11-13T06:37:38.858Z,0
2017-11-13T06:38:38.854Z,0
2017-11-13T06:39:38.847Z,0
2017-11-13T06:40:38.862Z,0
2017-11-13T06:41:38.846Z,0
2017-11-13T06:42:38.852Z,0
2017-11-13T06:43:38.853Z,0
2017-11-13T06:44:38.839Z,0
2017-11-13T06:45:38.872Z,0
2017-11-13T06:46:38.861Z,0
2017-11-13T06:47:38.870Z,0
2017-11-13T06:48:38.855Z,0
2017-11-13T06:49:38.843Z,0
2017-11-13T06:50:39.013Z,0
2017-11-13T06:51:38.853Z,0
2017-11-13T06:52:38.841Z,0
2017-11-13T06:53:38.843Z,0
2017-11-13T06:54:38.857Z,0
2017-11-13T06:55:38.834Z,0
2017-11-13T06:56:38.838Z,0
2017-11-13T06:57:38.844Z,0
2017-11-13T06:58:38.866Z,0
2017-11-13T06:59:38.847Z,0
2017-11-13T07:00:38.844Z,0
2017-11-13T07:01:38.850Z,0
2017-11-13T07:02:38.897Z,0
2017-11-13T07:03:38.835Z,0
2017-11-13T07:04:38.847Z,0
2017-11-13T07:05:38.823Z,0
2017-11-13T07:06:38.832Z,0
2017-11-13T07:07:38.868Z,0
2017-11-13T07:08:38.843Z,0
2017-11-13T07:09:38.840Z,0
2017-11-13T07:10:38.847Z,0
2017-11-13T07:11:38.831Z,0
2017-11-13T07:12:38.911Z,0
2017-11-13T07:13:38.835Z,0
2017-11-13T07:14:38.825Z,0
2017-11-13T07:15:38.839Z,0
2017-11-13T07:16:38.825Z,0
2017-11-13T07:17:38.877Z,0
2017-11-13T07:18:38.846Z,0
2017-11-13T07:19:38.836Z,0
2017-11-13T07:20:38.838Z,0
2017-11-13T07:21:38.830Z,0
2017-11-13T07:22:38.828Z,0
2017-11-13T07:23:38.849Z,0
2017-11-13T07:24:38.828Z,0
2017-11-13T07:25:38.842Z,0
2017-11-13T07:26:38.834Z,0
2017-11-13T07:27:38.821Z,0
2017-11-13T07:28:38.856Z,0
2017-11-13T07:29:38.825Z,0
2017-11-13T07:30:38.829Z,0
2017-11-13T07:31:38.829Z,0
2017-11-13T07:32:38.826Z,0
2017-11-13T07:33:38.821Z,0
2017-11-13T07:34:38.834Z,0
2017-11-13T07:35:38.829Z,0
2017-11-13T07:36:38.833Z,0
2017-11-13T07:37:38.829Z,0.1
2017-11-13T07:38:38.820Z,0.1
2017-11-13T07:39:38.819Z,0.2
2017-11-13T07:40:38.813Z,0.2
2017-11-13T07:41:38.817Z,0.2
2017-11-13T07:42:38.828Z,0.3
2017-11-13T07:43:38.822Z,0.3
2017-11-13T07:44:38.819Z,0.3
2017-11-13T07:45:38.810Z,0.3
2017-11-13T07:46:38.823Z,0.2
2017-11-13T07:47:38.823Z,0.2
2017-11-13T07:48:38.825Z,0.2
2017-11-13T07:49:38.814Z,0.2
2017-11-13T07:50:38.816Z,0.2
2017-11-13T07:51:38.805Z,0.2
2017-11-13T07:52:38.830Z,0.3
2017-11-13T07:53:38.822Z,0.9
2017-11-13T07:54:38.816Z,1.2
2017-11-13T07:55:38.820Z,1.4
2017-11-13T07:56:38.814Z,1.5
2017-11-13T07:57:38.818Z,1.6
2017-11-13T07:58:38.804Z,1.7
2017-11-13T07:59:38.798Z,2.2
2017-11-13T08:00:38.807Z,2.2
2017-11-13T08:01:38.806Z,2.2
2017-11-13T08:02:38.803Z,2
2017-11-13T08:03:38.814Z,1.8
2017-11-13T08:04:38.807Z,1.8
2017-11-13T08:05:38.818Z,1.6
2017-11-13T08:06:38.812Z,1.4
2017-11-13T08:07:38.808Z,1.3
2017-11-13T08:08:38.794Z,1.2
2017-11-13T08:09:38.819Z,1.1
2017-11-13T08:10:38.812Z,1
2017-11-13T08:11:38.799Z,0.9
2017-11-13T08:12:39.008Z,0.8
2017-11-13T08:13:38.802Z,0.7
2017-11-13T08:14:38.824Z,0.6
2017-11-13T08:15:38.800Z,0.6
2017-11-13T08:16:38.796Z,0.5
2017-11-13T08:17:38.803Z,0.5
2017-11-13T08:18:38.806Z,0.4
2017-11-13T08:19:38.818Z,0.4
2017-11-13T08:20:38.836Z,0.4
2017-11-13T08:21:38.793Z,0.3
2017-11-13T08:22:38.801Z,0.3
2017-11-13T08:23:38.798Z,0.3
2017-11-13T08:24:38.792Z,0.2
2017-11-13T08:25:38.837Z,0.2
2017-11-13T08:26:38.792Z,0.2
2017-11-13T08:27:38.797Z,0.2
2017-11-13T08:28:38.809Z,0.2
2017-11-13T08:29:38.805Z,0.1
2017-11-13T08:30:38.816Z,0.1
2017-11-13T08:31:38.805Z,0.1
2017-11-13T08:32:38.790Z,0.1
2017-11-13T08:33:38.848Z,0.1
2017-11-13T08:34:39.108Z,0.1
2017-11-13T08:35:38.804Z,0.1
2017-11-13T08:36:38.794Z,0.1
2017-11-13T08:37:38.802Z,0.1
2017-11-13T08:38:38.850Z,0.3
2017-11-13T08:39:38.787Z,0.6
2017-11-13T08:40:38.805Z,0.6
2017-11-13T08:41:38.778Z,0.8
2017-11-13T08:42:38.792Z,0.8
2017-11-13T08:43:38.842Z,0.7
2017-11-13T08:44:38.791Z,0.7
2017-11-13T08:45:38.792Z,0.9
2017-11-13T08:46:38.793Z,0.9
2017-11-13T08:47:38.789Z,0.9
2017-11-13T08:48:38.807Z,0.9
2017-11-13T08:49:38.797Z,0.8
2017-11-13T08:50:38.787Z,0.8
2017-11-13T08:51:38.791Z,0.7
2017-11-13T08:52:38.777Z,0.6
2017-11-13T08:53:38.785Z,0.6
2017-11-13T08:54:38.790Z,0.5
2017-11-13T08:55:38.793Z,0.5
2017-11-13T08:56:38.792Z,0.4
2017-11-13T08:57:38.784Z,0.4
2017-11-13T08:58:39.755Z,0.4
2017-11-13T08:59:38.802Z,0.3
2017-11-13T09:00:38.791Z,0.3
2017-11-13T09:01:38.800Z,0.3
2017-11-13T09:02:38.775Z,0.2
2017-11-13T09:03:38.779Z,0.2
2017-11-13T09:04:38.776Z,0.2
2017-11-13T09:05:38.782Z,0.4
2017-11-13T09:06:38.786Z,0.3
2017-11-13T09:07:38.777Z,0.5
2017-11-13T09:08:38.783Z,0.4
2017-11-13T09:09:38.793Z,0.4
2017-11-13T09:10:38.787Z,0.4
2017-11-13T09:11:38.784Z,0.4
2017-11-13T09:12:38.777Z,0.5
2017-11-13T09:13:38.795Z,0.5
2017-11-13T09:14:38.787Z,0.5
2017-11-13T09:15:38.800Z,0.5
2017-11-13T09:16:38.786Z,0.5
2017-11-13T09:17:38.788Z,0.4
2017-11-13T09:18:38.813Z,0.4
2017-11-13T09:19:38.778Z,0.3
2017-11-13T09:20:38.802Z,0.4
2017-11-13T09:21:38.787Z,0.4
2017-11-13T09:22:38.778Z,0.3
2017-11-13T09:23:38.784Z,0.3
2017-11-13T09:24:38.780Z,0.3
2017-11-13T09:25:38.778Z,0.3
2017-11-13T09:26:38.765Z,0.4
2017-11-13T09:27:38.778Z,0.4
2017-11-13T09:28:38.783Z,0.7
2017-11-13T09:29:38.834Z,0.7
2017-11-13T09:30:58.560Z,0.7
2017-11-13T09:31:38.764Z,0.7
2017-11-13T09:32:38.776Z,0.8
2017-11-13T09:33:38.779Z,0.7
2017-11-13T09:34:38.807Z,0.6
2017-11-13T09:35:38.780Z,0.6
2017-11-13T09:36:38.762Z,0.6
2017-11-13T09:37:38.765Z,0.7
2017-11-13T09:38:38.765Z,0.7
2017-11-13T09:39:38.829Z,0.7
2017-11-13T09:40:38.770Z,0.6
2017-11-13T09:41:38.787Z,0.6
2017-11-13T09:42:38.776Z,0.5
2017-11-13T09:43:38.788Z,0.5
2017-11-13T09:44:38.819Z,0.4
2017-11-13T09:45:38.774Z,0.4
2017-11-13T09:46:39.624Z,0.3
2017-11-13T09:47:38.780Z,0.3
2017-11-13T09:48:38.775Z,0.4
2017-11-13T09:49:38.773Z,0.3
2017-11-13T09:50:38.811Z,0.3
2017-11-13T09:51:38.768Z,0.3
2017-11-13T09:52:38.771Z,0.2
2017-11-13T09:53:38.767Z,0.2
2017-11-13T09:54:38.766Z,0.2
2017-11-13T09:55:38.775Z,0.2
2017-11-13T09:56:38.785Z,0.2
2017-11-13T09:57:38.773Z,0.2
2017-11-13T09:58:38.780Z,0.2
2017-11-13T09:59:38.761Z,0.2
2017-11-13T10:00:38.781Z,0.2
2017-11-13T10:01:38.779Z,0.3
2017-11-13T10:02:38.782Z,0.3
2017-11-13T10:03:38.763Z,0.3
2017-11-13T10:04:38.777Z,0.5
2017-11-13T10:05:38.802Z,0.8
2017-11-13T10:06:38.767Z,0.9
2017-11-13T10:07:38.779Z,1.2
2017-11-13T10:08:38.758Z,1.1
2017-11-13T10:09:38.777Z,1.1
2017-11-13T10:10:38.775Z,1.1
2017-11-13T10:11:38.773Z,1
2017-11-13T10:12:38.755Z,0.9
2017-11-13T10:13:38.773Z,0.8
2017-11-13T10:14:38.769Z,0.7
2017-11-13T10:15:38.758Z,0.6
2017-11-13T10:16:38.777Z,0.6
2017-11-13T10:17:38.770Z,0.5
2017-11-13T10:18:38.760Z,0.5
2017-11-13T10:19:38.762Z,0.4
2017-11-13T10:20:38.759Z,0.4
2017-11-13T10:21:38.769Z,0.4
2017-11-13T10:22:38.784Z,0.3
2017-11-13T10:23:38.771Z,0.3
2017-11-13T10:24:38.756Z,0.4
2017-11-13T10:25:38.759Z,0.4
2017-11-13T10:26:38.766Z,0.3
2017-11-13T10:27:38.796Z,0.4
2017-11-13T10:28:38.776Z,0.7
2017-11-13T10:29:38.767Z,1.1
2017-11-13T10:30:38.770Z,1.4
2017-11-13T10:31:38.770Z,1.7
2017-11-13T10:32:38.774Z,2
2017-11-13T10:33:38.774Z,2
2017-11-13T10:34:38.761Z,1.8
2017-11-13T10:35:38.767Z,1.9
2017-11-13T10:36:38.798Z,2.1
2017-11-13T10:37:38.764Z,2.2
2017-11-13T10:38:38.773Z,2.1
2017-11-13T10:39:38.766Z,2
2017-11-13T10:40:38.767Z,1.9
2017-11-13T10:41:38.779Z,1.7
2017-11-13T10:42:38.763Z,1.5
2017-11-13T10:43:38.801Z,1.5
2017-11-13T10:44:38.779Z,1.4
2017-11-13T10:45:38.829Z,1.4
2017-11-13T10:46:38.769Z,1.9
2017-11-13T10:47:38.763Z,2
2017-11-13T10:48:38.777Z,1.9
2017-11-13T10:49:38.759Z,1.9
2017-11-13T10:50:38.837Z,2.1
2017-11-13T10:51:38.770Z,2
2017-11-13T10:52:38.781Z,2.1
2017-11-13T10:53:38.775Z,2.1
2017-11-13T10:54:38.768Z,2.3
2017-11-13T10:55:38.835Z,2.7
2017-11-13T10:56:38.772Z,3.2
2017-11-13T10:57:38.777Z,3.7
2017-11-13T10:58:38.778Z,4.1
2017-11-13T10:59:38.764Z,4.3
2017-11-13T11:00:38.836Z,4.1
2017-11-13T11:01:38.759Z,3.9
2017-11-13T11:02:38.767Z,3.8
2017-11-13T11:03:38.755Z,4
2017-11-13T11:04:38.784Z,4.1
2017-11-13T11:05:38.817Z,4.3
2017-11-13T11:06:38.759Z,4.4
2017-11-13T11:07:38.789Z,4.3
2017-11-13T11:08:38.773Z,4.1
2017-11-13T11:09:38.760Z,4.1
2017-11-13T11:10:38.834Z,4.3
2017-11-13T11:11:38.765Z,4.4
2017-11-13T11:12:38.764Z,4.4
2017-11-13T11:13:38.761Z,4.2
2017-11-13T11:14:38.784Z,3.8
2017-11-13T11:15:38.803Z,3.4
2017-11-13T11:16:38.783Z,3.4
2017-11-13T11:17:38.769Z,3.5
2017-11-13T11:18:38.767Z,3.7
2017-11-13T11:19:38.765Z,4
2017-11-13T11:20:38.759Z,4.2
2017-11-13T11:21:38.774Z,3.9
2017-11-13T11:22:38.771Z,3.5
2017-11-13T11:23:38.779Z,3.5
2017-11-13T11:24:38.763Z,3.5
2017-11-13T11:25:38.757Z,3.7
2017-11-13T11:26:38.757Z,3.8
2017-11-13T11:27:38.766Z,3.6
2017-11-13T11:28:38.775Z,3.8
2017-11-13T11:29:38.770Z,3.5
2017-11-13T11:30:38.765Z,3.2
2017-11-13T11:31:38.778Z,3.2
2017-11-13T11:32:38.752Z,3
2017-11-13T11:33:38.757Z,2.7
2017-11-13T11:34:38.770Z,2.6
2017-11-13T11:35:38.763Z,2.8
2017-11-13T11:36:38.754Z,2.9
2017-11-13T11:37:38.772Z,3
2017-11-13T11:38:38.770Z,2.9
2017-11-13T11:39:38.772Z,2.6
2017-11-13T11:40:38.820Z,2.3
2017-11-13T11:41:38.769Z,2.4
2017-11-13T11:42:38.760Z,2.3
2017-11-13T11:43:38.769Z,2.1
2017-11-13T11:44:38.770Z,1.9
2017-11-13T11:45:38.763Z,1.7
2017-11-13T11:46:38.775Z,1.6
2017-11-13T11:47:38.757Z,1.6
2017-11-13T11:48:38.763Z,1.6
2017-11-13T11:49:38.795Z,1.5
2017-11-13T11:50:38.772Z,1.3
2017-11-13T11:51:38.764Z,1.3
2017-11-13T11:52:38.801Z,1.6
2017-11-13T11:53:38.780Z,1.8
2017-11-13T11:54:38.755Z,1.8
2017-11-13T11:55:38.757Z,1.7
2017-11-13T11:56:38.767Z,1.5
2017-11-13T11:57:38.762Z,1.4
2017-11-13T11:58:38.788Z,1.3
2017-11-13T11:59:38.801Z,1.4
2017-11-13T12:00:38.759Z,1.3
2017-11-13T12:01:38.762Z,1.6
2017-11-13T12:02:38.761Z,1.7
2017-11-13T12:03:38.766Z,1.9
2017-11-13T12:04:38.778Z,1.9
2017-11-13T12:05:38.767Z,2.1
2017-11-13T12:06:38.767Z,2.2
2017-11-13T12:07:38.770Z,2.4
2017-11-13T12:08:38.766Z,2.5
2017-11-13T12:09:38.768Z,2.5
2017-11-13T12:10:38.755Z,2.6
2017-11-13T12:11:38.765Z,2.7
2017-11-13T12:12:38.770Z,2.7
2017-11-13T12:13:38.771Z,2.7
2017-11-13T12:14:38.765Z,2.8
2017-11-13T12:15:38.763Z,2.6
2017-11-13T12:16:38.759Z,2.7
2017-11-13T12:17:38.782Z,2.5
2017-11-13T12:18:38.772Z,2.3
2017-11-13T12:19:38.772Z,2.2
2017-11-13T12:20:38.771Z,2
2017-11-13T12:21:38.823Z,2.4
2017-11-13T12:22:38.776Z,2.7
2017-11-13T12:23:38.777Z,2.7
2017-11-13T12:24:38.764Z,2.5
2017-11-13T12:25:38.783Z,2.9
2017-11-13T12:26:38.804Z,3.3
2017-11-13T12:27:38.768Z,3.3
2017-11-13T12:28:38.752Z,3.6
2017-11-13T12:29:38.753Z,3.7
2017-11-13T12:30:38.774Z,3.7
2017-11-13T12:31:38.843Z,3.7
2017-11-13T12:32:38.759Z,3.6
2017-11-13T12:33:38.758Z,3.3
2017-11-13T12:34:38.775Z,3.1
2017-11-13T12:35:38.769Z,3
2017-11-13T12:36:38.808Z,2.7
2017-11-13T12:37:38.828Z,2.4
2017-11-13T12:38:38.767Z,2.4
2017-11-13T12:39:38.769Z,2.2
2017-11-13T12:40:38.764Z,2
2017-11-13T12:41:38.768Z,1.8
2017-11-13T12:42:38.778Z,1.7
2017-11-13T12:43:38.768Z,1.5
2017-11-13T12:44:38.769Z,1.4
2017-11-13T12:45:38.770Z,1.3
2017-11-13T12:46:38.770Z,1.1
2017-11-13T12:47:38.820Z,1
2017-11-13T12:48:38.778Z,1
2017-11-13T12:49:38.765Z,1.2
2017-11-13T12:50:38.775Z,1.2
2017-11-13T12:51:38.765Z,1.2
2017-11-13T12:52:38.760Z,1.2
2017-11-13T12:53:38.751Z,1.4
2017-11-13T12:54:38.757Z,1.6
2017-11-13T12:55:38.765Z,1.7
2017-11-13T12:56:38.778Z,2
2017-11-13T12:57:38.759Z,2.4
2017-11-13T12:58:38.766Z,2.6
2017-11-13T12:59:38.774Z,2.8
2017-11-13T13:00:38.769Z,3
2017-11-13T13:01:38.769Z,2.8
2017-11-13T13:02:38.770Z,2.5
2017-11-13T13:03:38.766Z,2.3
2017-11-13T13:04:38.769Z,2.1
2017-11-13T13:05:38.786Z,1.9
2017-11-13T13:06:38.755Z,1.7
2017-11-13T13:07:38.769Z,1.6
2017-11-13T13:08:38.777Z,1.6
2017-11-13T13:09:38.770Z,1.7
2017-11-13T13:10:38.787Z,2.1
2017-11-13T13:11:38.760Z,2.4
2017-11-13T13:12:38.795Z,2.4
2017-11-13T13:13:38.765Z,2.4
2017-11-13T13:14:38.771Z,2.6
2017-11-13T13:15:38.781Z,2.7
2017-11-13T13:16:38.780Z,2.6
2017-11-13T13:17:38.765Z,2.4
2017-11-13T13:18:38.756Z,2.2
2017-11-13T13:19:38.759Z,2.2
2017-11-13T13:20:38.759Z,2.1
2017-11-13T13:21:38.762Z,2
2017-11-13T13:22:38.745Z,2.1
2017-11-13T13:23:38.765Z,2
2017-11-13T13:24:38.763Z,2
2017-11-13T13:25:38.753Z,1.8
2017-11-13T13:26:38.772Z,2.1
2017-11-13T13:27:38.752Z,2.2
2017-11-13T13:28:38.752Z,2.4
2017-11-13T13:29:42.415Z,2.6
2017-11-13T13:30:38.756Z,2.7
2017-11-13T13:31:38.738Z,2.8
2017-11-13T13:32:38.749Z,2.6
2017-11-13T13:33:38.754Z,2.4
2017-11-13T13:34:38.756Z,2.3
2017-11-13T13:35:40.378Z,2.1
2017-11-13T13:36:38.758Z,1.9
2017-11-13T13:37:38.739Z,2
2017-11-13T13:38:38.753Z,2.1
2017-11-13T13:39:38.755Z,2.2
2017-11-13T13:40:38.757Z,2.1
2017-11-13T13:41:38.761Z,2
2017-11-13T13:42:38.795Z,2.3
2017-11-13T13:43:38.771Z,2.4
2017-11-13T13:44:38.754Z,2.4
2017-11-13T13:45:38.747Z,2.5
2017-11-13T13:46:38.748Z,2.4
2017-11-13T13:47:38.785Z,2.3
2017-11-13T13:48:38.752Z,2.3
2017-11-13T13:49:38.742Z,2
2017-11-13T13:50:38.743Z,1.9
2017-11-13T13:51:38.761Z,1.7
2017-11-13T13:52:38.817Z,1.5
2017-11-13T13:53:38.740Z,1.4
2017-11-13T13:54:38.745Z,1.2
2017-11-13T13:55:38.738Z,1.1
2017-11-13T13:56:38.745Z,1
2017-11-13T13:57:38.825Z,0.9
2017-11-13T13:58:38.752Z,0.8
2017-11-13T13:59:38.748Z,0.8
2017-11-13T14:00:38.732Z,0.7
2017-11-13T14:01:38.734Z,0.6
2017-11-13T14:02:38.798Z,0.6
2017-11-13T14:03:38.743Z,0.5
2017-11-13T14:04:38.751Z,0.5
2017-11-13T14:05:38.742Z,0.4
2017-11-13T14:06:38.738Z,0.4
2017-11-13T14:07:38.813Z,0.3
2017-11-13T14:08:38.741Z,0.3
2017-11-13T14:09:38.743Z,0.3
2017-11-13T14:10:38.740Z,0.3
2017-11-13T14:11:38.746Z,0.2
2017-11-13T14:12:38.798Z,0.2
2017-11-13T14:13:38.737Z,0.2
2017-11-13T14:14:38.734Z,0.2
2017-11-13T14:15:38.727Z,0.2
2017-11-13T14:16:38.792Z,0.1
2017-11-13T14:17:38.807Z,0.1